Time;durP1;ratioP1;P1;durP2;ratioP2;P2;SDS_P1;SDS_P2;PMS_P1;PMS_P2;Temp;Humidity;BMP_temperature;BMP_pressure;BME280_temperature;BME280_humidity;BME280_pressure;Samples;Min_cycle;Max_cycle;Signal;HPM_P1;HPM_P2
2023/07/29 00:00:48;;;;;;;4.53;2.03;;;19.10;99.90;;;;;;5041911;28;20076;-60
2023/07/29 00:03:14;;;;;;;5.07;1.58;;;19.10;99.90;;;;;;5041732;28;20041;-61
2023/07/29 00:05:40;;;;;;;2.35;1.65;;;19.20;99.90;;;;;;5034903;28;20029;-60
2023/07/29 00:08:06;;;;;;;1.98;1.40;;;19.20;99.90;;;;;;5036562;28;20021;-60
2023/07/29 00:10:32;;;;;;;2.20;1.67;;;19.20;99.90;;;;;;5035386;28;20022;-61
2023/07/29 00:12:58;;;;;;;5.75;2.10;;;19.20;99.90;;;;;;5037826;28;20041;-61
2023/07/29 00:15:24;;;;;;;4.95;2.05;;;19.20;99.90;;;;;;5042024;28;20055;-61
2023/07/29 00:17:49;;;;;;;5.32;2.05;;;19.20;99.90;;;;;;5037943;28;20056;-61
2023/07/29 00:20:15;;;;;;;6.80;2.95;;;19.20;99.90;;;;;;5034707;28;20033;-61
2023/07/29 00:22:40;;;;;;;4.63;2.17;;;19.10;99.90;;;;;;5035351;28;20029;-61
2023/07/29 00:25:06;;;;;;;8.02;1.83;;;19.10;99.90;;;;;;5034628;28;20029;-60
2023/07/29 00:27:32;;;;;;;5.30;2.35;;;19.10;99.90;;;;;;5041262;28;20120;-60
2023/07/29 00:29:58;;;;;;;6.32;2.28;;;19.10;99.90;;;;;;5037878;28;20167;-61
2023/07/29 00:32:23;;;;;;;3.00;2.20;;;19.10;99.90;;;;;;5037200;28;20090;-61
2023/07/29 00:34:49;;;;;;;5.75;2.33;;;19.10;99.90;;;;;;5036153;28;20025;-61
2023/07/29 00:37:14;;;;;;;6.20;2.17;;;19.10;99.90;;;;;;5033551;28;20025;-59
2023/07/29 00:39:40;;;;;;;7.57;2.65;;;19.10;99.90;;;;;;5036943;28;20021;-61
2023/07/29 00:42:06;;;;;;;4.60;2.50;;;19.10;99.90;;;;;;5035949;28;20034;-61
2023/07/29 00:44:31;;;;;;;5.13;2.42;;;19.10;99.90;;;;;;5040473;28;20382;-59
2023/07/29 00:46:58;;;;;;;4.07;2.33;;;19.10;99.90;;;;;;5033053;28;20025;-61
2023/07/29 00:49:24;;;;;;;4.28;2.40;;;19.10;99.90;;;;;;5037593;28;20451;-61
2023/07/29 00:51:50;;;;;;;5.97;2.40;;;19.10;99.90;;;;;;5034701;28;20017;-61
2023/07/29 00:54:16;;;;;;;3.92;2.10;;;19.10;99.90;;;;;;5035329;28;20109;-61
2023/07/29 00:56:42;;;;;;;4.03;2.50;;;19.10;99.90;;;;;;5035991;28;20044;-61
2023/07/29 00:59:08;;;;;;;9.02;2.80;;;19.10;99.90;;;;;;5036069;28;20075;-61
2023/07/29 01:01:34;;;;;;;3.03;2.28;;;19.10;99.90;;;;;;5036170;28;20416;-61
2023/07/29 01:03:59;;;;;;;6.80;2.80;;;19.10;99.90;;;;;;5037498;28;20465;-61
2023/07/29 01:06:51;;;;;;;3.58;2.42;;;19.00;99.90;;;;;;5032429;28;20029;-61
2023/07/29 01:09:43;;;;;;;4.80;2.38;;;19.00;99.90;;;;;;5033074;28;20063;-61
2023/07/29 01:12:18;;;;;;;2.83;2.40;;;19.00;99.90;;;;;;5038421;28;20378;-61
2023/07/29 01:15:07;;;;;;;8.30;2.40;;;18.90;99.90;;;;;;5037340;28;20044;-60
2023/07/29 01:17:36;;;;;;;4.10;2.97;;;18.90;99.90;;;;;;5033986;28;20501;-61
2023/07/29 01:20:11;;;;;;;5.47;3.63;;;18.90;99.90;;;;;;5038407;28;20087;-60
2023/07/29 01:22:37;;;;;;;5.38;2.95;;;18.90;99.90;;;;;;5044869;28;20018;-62
2023/07/29 01:25:03;;;;;;;3.97;3.17;;;18.90;99.90;;;;;;5031575;28;20116;-61
2023/07/29 01:27:29;;;;;;;5.05;3.35;;;18.90;99.90;;;;;;5035051;28;20504;-61
2023/07/29 01:29:55;;;;;;;5.70;3.13;;;18.90;99.90;;;;;;5037661;28;20029;-61
2023/07/29 01:32:36;;;;;;;3.92;3.33;;;18.90;99.90;;;;;;5034870;28;20191;-61
2023/07/29 01:35:28;;;;;;;7.95;4.20;;;18.90;99.90;;;;;;5028341;28;20029;-61
2023/07/29 01:38:03;;;;;;;6.20;3.20;;;18.90;99.90;;;;;;5034238;28;20033;-61
2023/07/29 01:40:28;;;;;;;6.70;3.88;;;18.90;99.90;;;;;;5033661;28;20396;-62
2023/07/29 01:42:54;;;;;;;9.77;3.55;;;19.00;99.90;;;;;;5037827;28;20056;-62
2023/07/29 01:45:24;;;;;;;5.82;4.43;;;19.10;99.90;;;;;;5036070;28;20026;-63
2023/07/29 01:47:50;;;;;;;10.30;3.80;;;19.10;99.90;;;;;;5033175;28;20022;-63
2023/07/29 01:50:15;;;;;;;7.70;3.88;;;19.00;99.90;;;;;;5033671;28;20037;-63
2023/07/29 01:52:41;;;;;;;7.10;3.78;;;19.00;99.90;;;;;;5034536;28;20026;-62
2023/07/29 01:55:06;;;;;;;8.20;3.85;;;19.10;99.90;;;;;;5033365;28;20516;-63
2023/07/29 01:57:32;;;;;;;13.02;4.72;;;19.10;99.90;;;;;;5039961;28;20021;-61
2023/07/29 01:59:57;;;;;;;13.85;4.85;;;19.10;99.90;;;;;;5034743;28;20437;-60
2023/07/29 02:02:23;;;;;;;9.23;4.43;;;19.10;99.90;;;;;;5031695;28;20428;-63
2023/07/29 02:04:51;;;;;;;7.65;2.83;;;19.00;99.90;;;;;;5034618;28;20024;-63
2023/07/29 02:07:18;;;;;;;3.03;0.90;;;18.70;99.90;;;;;;5031890;28;20095;-64
2023/07/29 02:09:43;;;;;;;2.83;1.17;;;18.50;99.90;;;;;;5032389;28;20040;-65
2023/07/29 02:12:09;;;;;;;4.10;1.30;;;18.40;99.90;;;;;;5038657;28;20021;-62
2023/07/29 02:14:34;;;;;;;3.35;1.90;;;18.40;99.90;;;;;;5035209;28;20048;-63
2023/07/29 02:17:00;;;;;;;5.50;1.30;;;18.40;99.90;;;;;;5031078;28;20072;-64
2023/07/29 02:19:25;;;;;;;7.72;1.33;;;18.40;99.90;;;;;;5034560;28;20037;-64
2023/07/29 02:21:51;;;;;;;3.15;1.30;;;18.40;99.90;;;;;;5031198;28;20048;-64
2023/07/29 02:24:16;;;;;;;5.55;1.80;;;18.40;99.90;;;;;;5033691;28;20060;-64
2023/07/29 02:26:42;;;;;;;6.07;1.75;;;18.40;99.90;;;;;;5038911;28;20622;-64
2023/07/29 02:29:07;;;;;;;3.30;1.40;;;18.40;99.90;;;;;;5032342;28;20022;-64
2023/07/29 02:31:34;;;;;;;8.65;1.50;;;18.40;99.90;;;;;;5031446;28;20033;-64
2023/07/29 02:34:00;;;;;;;2.55;1.70;;;18.40;99.90;;;;;;5037057;28;20022;-64
2023/07/29 02:36:25;;;;;;;6.90;1.70;;;18.40;99.90;;;;;;5034606;28;20053;-64
2023/07/29 02:38:51;;;;;;;4.22;2.25;;;18.40;99.90;;;;;;5037468;28;20041;-63
2023/07/29 02:41:16;;;;;;;4.70;1.63;;;18.30;99.90;;;;;;5042739;28;20028;-64
2023/07/29 02:43:43;;;;;;;4.45;1.80;;;18.40;99.90;;;;;;5037295;28;20021;-63
2023/07/29 02:46:09;;;;;;;3.63;1.38;;;18.40;99.90;;;;;;5034780;28;20033;-64
2023/07/29 02:48:34;;;;;;;3.17;1.67;;;18.40;99.90;;;;;;5036607;28;20052;-64
2023/07/29 02:51:00;;;;;;;2.90;1.33;;;18.40;99.90;;;;;;5035340;28;20477;-64
2023/07/29 02:53:25;;;;;;;4.07;1.83;;;18.40;99.90;;;;;;5038585;28;20021;-64
2023/07/29 02:55:51;;;;;;;4.90;1.70;;;18.40;99.90;;;;;;5038834;28;20028;-64
2023/07/29 02:58:16;;;;;;;4.25;1.95;;;18.40;99.90;;;;;;5035775;28;20026;-64
2023/07/29 03:00:43;;;;;;;5.25;2.03;;;18.40;99.90;;;;;;5035774;28;20031;-64
2023/07/29 03:03:09;;;;;;;10.98;2.13;;;18.40;99.90;;;;;;5034721;28;20021;-64
2023/07/29 03:05:35;;;;;;;3.58;2.30;;;18.50;99.90;;;;;;5036253;28;21607;-63
2023/07/29 03:08:00;;;;;;;6.97;2.58;;;18.60;99.90;;;;;;5038678;28;20028;-63
2023/07/29 03:10:26;;;;;;;10.93;2.35;;;18.60;99.90;;;;;;5039490;28;20397;-63
2023/07/29 03:12:54;;;;;;;8.25;2.15;;;18.60;99.90;;;;;;5036343;28;20474;-64
2023/07/29 03:15:24;;;;;;;5.00;2.72;;;18.70;99.90;;;;;;5034824;28;20403;-63
2023/07/29 03:17:50;;;;;;;8.05;3.00;;;18.70;99.90;;;;;;5034407;28;20402;-63
2023/07/29 03:20:17;;;;;;;4.07;2.42;;;18.70;99.90;;;;;;5035925;28;20025;-63
2023/07/29 03:22:43;;;;;;;7.28;2.70;;;18.70;99.90;;;;;;5038879;28;20025;-63
2023/07/29 03:25:09;;;;;;;6.80;2.60;;;18.70;99.90;;;;;;5036049;28;20022;-63
2023/07/29 03:27:36;;;;;;;7.55;2.85;;;18.80;99.90;;;;;;5034716;28;20034;-62
2023/07/29 03:30:02;;;;;;;4.88;2.33;;;18.80;99.90;;;;;;5036806;28;20051;-63
2023/07/29 03:32:28;;;;;;;3.97;2.95;;;18.80;99.90;;;;;;5035117;28;20033;-63
2023/07/29 03:34:54;;;;;;;3.53;2.67;;;18.80;99.90;;;;;;5034960;28;20021;-63
2023/07/29 03:37:20;;;;;;;4.88;2.63;;;18.80;99.90;;;;;;5038525;28;20505;-63
2023/07/29 03:39:45;;;;;;;5.45;2.40;;;18.80;99.90;;;;;;5036678;28;20036;-64
2023/07/29 03:42:11;;;;;;;4.20;2.95;;;18.80;99.90;;;;;;5034058;28;20025;-63
2023/07/29 03:44:38;;;;;;;6.03;2.88;;;18.80;99.90;;;;;;5035976;28;20036;-63
2023/07/29 03:47:04;;;;;;;4.80;2.95;;;18.70;99.90;;;;;;5033622;28;20434;-62
2023/07/29 03:49:30;;;;;;;3.40;3.10;;;18.80;99.90;;;;;;5034391;28;20083;-63
2023/07/29 03:51:56;;;;;;;3.85;2.85;;;18.80;99.90;;;;;;5039311;28;20034;-63
2023/07/29 03:54:21;;;;;;;5.53;2.95;;;18.80;99.90;;;;;;5036893;28;20396;-63
2023/07/29 03:56:47;;;;;;;4.47;3.20;;;18.80;99.90;;;;;;5033320;28;20079;-63
2023/07/29 03:59:12;;;;;;;6.30;3.35;;;18.80;99.90;;;;;;5035962;28;20084;-62
2023/07/29 04:01:38;;;;;;;7.20;4.20;;;18.80;99.90;;;;;;5033815;28;20025;-63
2023/07/29 04:04:03;;;;;;;8.00;3.53;;;18.80;99.90;;;;;;5034656;28;20025;-63
2023/07/29 04:06:29;;;;;;;4.50;3.50;;;18.80;99.90;;;;;;5039045;28;20021;-63
2023/07/29 04:08:55;;;;;;;5.13;4.10;;;18.80;99.90;;;;;;5035602;28;20022;-63
2023/07/29 04:11:20;;;;;;;13.23;5.50;;;18.80;99.90;;;;;;5036499;28;20055;-62
2023/07/29 04:13:46;;;;;;;8.70;3.88;;;18.80;99.90;;;;;;5034953;28;20021;-63
2023/07/29 04:16:11;;;;;;;4.75;3.88;;;18.80;99.90;;;;;;5033033;28;20394;-63
2023/07/29 04:18:37;;;;;;;5.30;4.15;;;18.80;99.90;;;;;;5035873;28;20018;-63
2023/07/29 04:21:03;;;;;;;6.63;4.32;;;18.80;99.90;;;;;;5035188;28;20041;-63
2023/07/29 04:23:28;;;;;;;6.43;4.18;;;18.80;99.90;;;;;;5034994;28;20021;-63
2023/07/29 04:25:54;;;;;;;5.40;4.03;;;18.80;99.90;;;;;;5033542;28;20547;-63
2023/07/29 04:28:19;;;;;;;4.07;3.67;;;18.80;99.90;;;;;;5033535;28;20156;-63
2023/07/29 04:30:45;;;;;;;5.15;4.13;;;18.80;99.90;;;;;;5033873;28;20097;-63
2023/07/29 04:33:10;;;;;;;5.38;4.00;;;18.80;99.90;;;;;;5033166;28;20389;-63
2023/07/29 04:35:36;;;;;;;7.22;4.10;;;18.80;99.90;;;;;;5036594;28;20489;-63
2023/07/29 04:38:01;;;;;;;6.88;4.30;;;18.80;99.90;;;;;;5033024;28;20034;-64
2023/07/29 04:40:27;;;;;;;8.68;3.90;;;18.70;99.90;;;;;;5033703;28;20025;-63
2023/07/29 04:42:52;;;;;;;8.95;4.07;;;18.80;99.90;;;;;;5032772;28;20022;-63
2023/07/29 04:45:18;;;;;;;4.93;4.07;;;18.80;99.90;;;;;;5033442;28;20037;-63
2023/07/29 04:47:43;;;;;;;6.13;4.75;;;18.70;99.90;;;;;;5033151;28;20022;-63
2023/07/29 04:50:09;;;;;;;9.00;4.95;;;18.70;99.90;;;;;;5034383;28;20026;-63
2023/07/29 04:52:35;;;;;;;5.80;4.38;;;18.70;99.90;;;;;;5035117;28;20040;-63
2023/07/29 04:55:00;;;;;;;4.90;3.67;;;18.70;99.90;;;;;;5032789;28;20021;-63
2023/07/29 04:57:26;;;;;;;5.65;4.47;;;18.80;99.90;;;;;;5031391;28;20097;-63
2023/07/29 04:59:51;;;;;;;7.13;4.78;;;18.80;99.90;;;;;;5033543;28;20029;-63
2023/07/29 05:02:17;;;;;;;6.13;4.10;;;18.80;99.90;;;;;;5031465;28;20564;-63
2023/07/29 05:04:42;;;;;;;9.43;4.93;;;18.80;99.90;;;;;;5036001;28;20075;-63
2023/07/29 05:07:08;;;;;;;5.55;4.30;;;18.70;99.90;;;;;;5036559;28;20485;-63
2023/07/29 05:09:34;;;;;;;6.43;5.20;;;18.70;99.90;;;;;;5033317;28;20055;-63
2023/07/29 05:12:00;;;;;;;13.05;4.80;;;18.70;99.90;;;;;;5027496;28;20102;-63
2023/07/29 05:14:26;;;;;;;6.30;5.07;;;18.80;99.90;;;;;;5032578;28;20033;-63
2023/07/29 05:16:51;;;;;;;7.82;5.25;;;18.70;99.90;;;;;;5031761;28;20439;-63
2023/07/29 05:19:17;;;;;;;6.78;4.35;;;18.70;99.90;;;;;;5033466;28;20022;-62
2023/07/29 05:21:42;;;;;;;7.32;5.32;;;18.70;99.90;;;;;;5033112;28;20028;-62
2023/07/29 05:24:08;;;;;;;12.25;5.65;;;18.80;99.90;;;;;;5033296;28;20029;-63
2023/07/29 05:26:33;;;;;;;8.23;5.25;;;18.80;99.90;;;;;;5031416;28;20412;-62
2023/07/29 05:28:59;;;;;;;6.80;5.50;;;18.80;99.90;;;;;;5032040;28;20504;-63
2023/07/29 05:31:24;;;;;;;9.23;4.80;;;18.80;99.90;;;;;;5030891;28;20381;-63
2023/07/29 05:33:50;;;;;;;7.38;5.25;;;18.80;99.90;;;;;;5035009;28;20044;-63
2023/07/29 05:36:15;;;;;;;10.90;5.90;;;18.90;99.90;;;;;;5031368;28;20105;-62
2023/07/29 05:38:41;;;;;;;7.90;6.05;;;18.80;99.90;;;;;;5033615;28;20028;-63
2023/07/29 05:41:07;;;;;;;7.90;4.95;;;18.80;99.90;;;;;;5031754;28;20386;-63
2023/07/29 05:43:32;;;;;;;7.65;4.75;;;18.80;99.90;;;;;;5031563;28;20084;-63
2023/07/29 05:45:58;;;;;;;8.13;4.55;;;18.80;99.90;;;;;;5030495;28;20057;-63
2023/07/29 05:48:23;;;;;;;7.32;5.00;;;18.80;99.90;;;;;;5033805;28;20026;-63
2023/07/29 05:50:50;;;;;;;12.70;4.93;;;18.80;99.90;;;;;;5032785;28;20021;-63
2023/07/29 05:53:15;;;;;;;5.55;4.45;;;18.80;99.90;;;;;;5032597;28;20029;-63
2023/07/29 05:55:41;;;;;;;5.95;4.68;;;18.80;99.90;;;;;;5031046;28;20098;-63
2023/07/29 05:58:06;;;;;;;8.00;4.68;;;18.90;99.90;;;;;;5031461;28;20029;-63
2023/07/29 06:00:32;;;;;;;8.57;4.22;;;18.90;99.90;;;;;;5030980;28;20120;-63
2023/07/29 06:02:57;;;;;;;7.22;4.47;;;18.90;99.90;;;;;;5033822;28;20033;-62
2023/07/29 06:05:23;;;;;;;8.63;4.10;;;18.90;99.90;;;;;;5031889;28;20136;-63
2023/07/29 06:07:48;;;;;;;8.23;4.32;;;19.00;99.90;;;;;;5032185;28;20104;-62
2023/07/29 06:10:18;;;;;;;5.85;4.28;;;18.90;99.90;;;;;;5036383;28;20513;-63
2023/07/29 06:12:45;;;;;;;13.45;4.50;;;18.90;99.90;;;;;;5032422;28;20060;-63
2023/07/29 06:15:11;;;;;;;5.20;3.95;;;18.90;99.90;;;;;;5030106;28;20030;-62
2023/07/29 06:17:37;;;;;;;6.13;3.83;;;18.90;99.90;;;;;;5034658;28;20087;-63
2023/07/29 06:20:04;;;;;;;10.90;4.28;;;18.90;99.90;;;;;;5031496;28;20112;-62
2023/07/29 06:22:29;;;;;;;6.53;4.93;;;18.90;99.90;;;;;;5031470;28;20452;-62
2023/07/29 06:24:55;;;;;;;6.72;4.38;;;18.90;99.90;;;;;;5038640;28;20071;-62
2023/07/29 06:27:20;;;;;;;9.90;4.32;;;18.90;99.90;;;;;;5031015;28;20386;-62
2023/07/29 06:29:46;;;;;;;9.85;4.20;;;18.90;99.90;;;;;;5032144;28;20033;-62
2023/07/29 06:32:11;;;;;;;10.10;4.60;;;18.90;99.90;;;;;;5032144;28;20084;-62
2023/07/29 06:34:37;;;;;;;5.78;4.70;;;18.80;99.90;;;;;;5030890;28;20022;-62
2023/07/29 06:37:02;;;;;;;6.10;4.43;;;18.90;99.90;;;;;;5030868;28;20104;-62
2023/07/29 06:39:28;;;;;;;7.60;4.38;;;18.90;99.90;;;;;;5031852;28;20021;-62
2023/07/29 06:41:53;;;;;;;6.30;4.25;;;18.80;99.90;;;;;;5030890;28;20448;-63
2023/07/29 06:44:19;;;;;;;8.85;4.60;;;18.80;99.90;;;;;;5032741;28;20560;-64
2023/07/29 06:46:44;;;;;;;6.70;4.68;;;18.80;99.90;;;;;;5033097;28;20030;-63
2023/07/29 06:49:10;;;;;;;8.27;4.93;;;18.90;99.90;;;;;;5031174;28;20057;-62
2023/07/29 06:51:35;;;;;;;9.15;4.63;;;18.90;99.90;;;;;;5030649;28;20033;-62
2023/07/29 06:54:04;;;;;;;6.60;4.35;;;18.90;99.90;;;;;;5030807;28;20044;-61
2023/07/29 06:56:30;;;;;;;9.23;4.18;;;18.90;99.90;;;;;;5034082;28;20049;-61
2023/07/29 06:58:55;;;;;;;8.10;4.15;;;18.90;99.90;;;;;;5033865;28;20417;-62
2023/07/29 07:01:21;;;;;;;6.68;3.97;;;18.90;99.90;;;;;;5031204;28;20033;-61
2023/07/29 07:03:46;;;;;;;10.25;4.07;;;19.00;99.90;;;;;;5030722;28;20079;-62
2023/07/29 07:06:12;;;;;;;15.70;4.05;;;19.10;99.90;;;;;;5030472;28;20025;-62
2023/07/29 07:08:37;;;;;;;5.18;3.75;;;19.10;99.90;;;;;;5030675;28;20479;-62
2023/07/29 07:11:03;;;;;;;10.48;3.92;;;19.20;99.90;;;;;;5030662;28;20428;-62
2023/07/29 07:13:28;;;;;;;6.15;3.25;;;19.20;99.90;;;;;;5033109;28;20443;-63
2023/07/29 07:15:55;;;;;;;7.20;3.60;;;19.20;99.90;;;;;;5030884;28;20408;-63
2023/07/29 07:18:23;;;;;;;6.22;4.43;;;19.10;99.90;;;;;;5034647;28;21028;-61
2023/07/29 07:20:49;;;;;;;5.38;4.13;;;19.10;99.90;;;;;;5035888;28;20061;-62
2023/07/29 07:23:16;;;;;;;12.38;4.80;;;19.20;99.90;;;;;;5036423;28;20026;-63
2023/07/29 07:25:42;;;;;;;8.10;4.57;;;19.20;99.90;;;;;;5050383;28;20029;-63
2023/07/29 07:28:10;;;;;;;9.57;4.35;;;19.30;99.90;;;;;;5040794;28;20021;-62
2023/07/29 07:30:43;;;;;;;5.15;4.05;;;19.20;99.90;;;;;;5043175;28;20029;-62
2023/07/29 07:33:09;;;;;;;8.68;4.55;;;19.20;99.90;;;;;;5044309;28;20596;-62
2023/07/29 07:35:34;;;;;;;13.95;5.05;;;19.20;99.90;;;;;;5045215;28;20034;-62
2023/07/29 07:38:02;;;;;;;5.72;4.90;;;19.10;99.90;;;;;;5042390;28;20024;-61
2023/07/29 07:40:27;;;;;;;13.27;5.57;;;19.10;99.90;;;;;;5046154;28;20034;-62
2023/07/29 07:42:53;;;;;;;11.50;5.55;;;19.10;99.90;;;;;;5038633;28;20112;-62
2023/07/29 07:45:19;;;;;;;5.85;4.88;;;19.30;99.90;;;;;;5033163;28;20025;-61
2023/07/29 07:47:45;;;;;;;9.32;5.00;;;19.40;99.90;;;;;;5038959;28;20116;-62
2023/07/29 07:50:10;;;;;;;4.95;3.80;;;19.40;99.90;;;;;;5028270;28;20055;-62
2023/07/29 07:52:36;;;;;;;7.13;3.85;;;19.30;99.90;;;;;;5045890;28;20021;-62
2023/07/29 07:55:02;;;;;;;5.10;3.38;;;19.30;99.90;;;;;;5034414;28;20025;-62
2023/07/29 07:57:27;;;;;;;5.22;3.17;;;19.30;99.90;;;;;;5041692;28;20026;-62
2023/07/29 07:59:53;;;;;;;13.05;3.85;;;19.20;99.90;;;;;;5041332;28;20034;-62
2023/07/29 08:02:19;;;;;;;2.97;2.47;;;19.30;99.90;;;;;;5044459;28;20028;-62
2023/07/29 08:04:44;;;;;;;4.63;3.17;;;19.40;99.90;;;;;;5038422;28;20021;-62
2023/07/29 08:07:10;;;;;;;4.90;2.70;;;19.40;99.90;;;;;;5045565;28;20036;-62
2023/07/29 08:09:35;;;;;;;9.63;3.63;;;19.40;99.90;;;;;;5040325;28;20029;-62
2023/07/29 08:12:01;;;;;;;3.42;2.30;;;19.40;99.90;;;;;;5038466;28;20033;-62
2023/07/29 08:14:26;;;;;;;5.97;2.22;;;19.40;99.90;;;;;;5043290;28;20047;-62
2023/07/29 08:16:52;;;;;;;5.95;2.30;;;19.50;99.90;;;;;;5043771;28;20400;-61
2023/07/29 08:19:18;;;;;;;3.78;2.00;;;19.60;99.90;;;;;;5042295;28;20590;-61
2023/07/29 08:21:43;;;;;;;3.45;1.77;;;19.60;99.90;;;;;;5037030;28;20033;-61
2023/07/29 08:24:09;;;;;;;4.30;1.67;;;19.60;99.90;;;;;;5047304;28;20025;-61
2023/07/29 08:26:34;;;;;;;2.55;1.65;;;19.50;99.90;;;;;;5041997;28;20025;-61
2023/07/29 08:29:00;;;;;;;2.90;1.70;;;19.60;99.90;;;;;;5046031;28;20593;-61
2023/07/29 08:31:25;;;;;;;3.67;1.42;;;19.60;99.90;;;;;;5045050;28;20060;-62
2023/07/29 08:33:51;;;;;;;6.20;1.73;;;19.60;99.90;;;;;;5038610;28;20036;-62
2023/07/29 08:36:17;;;;;;;3.45;1.58;;;19.70;99.90;;;;;;5043709;28;20021;-61
2023/07/29 08:38:42;;;;;;;4.38;1.67;;;19.60;99.90;;;;;;5057868;28;20591;-60
2023/07/29 08:41:13;;;;;;;8.80;1.50;;;19.70;99.90;;;;;;5044738;28;20025;-62
2023/07/29 08:44:09;;;;;;;3.35;1.40;;;19.80;99.90;;;;;;5031866;28;20086;-61
2023/07/29 08:46:34;;;;;;;5.13;1.63;;;19.80;99.90;;;;;;5031302;28;20037;-62
2023/07/29 08:49:02;;;;;;;1.83;1.73;;;19.70;99.90;;;;;;5040864;28;20405;-62
2023/07/29 08:51:28;;;;;;;1.45;1.35;;;19.70;99.90;;;;;;5037780;28;20026;-62
2023/07/29 08:53:55;;;;;;;6.43;1.60;;;19.70;99.90;;;;;;5038680;28;20052;-61
2023/07/29 08:56:20;;;;;;;1.58;1.40;;;19.70;99.90;;;;;;5041433;28;20045;-62
2023/07/29 08:58:47;;;;;;;3.33;1.55;;;19.70;99.90;;;;;;5037418;28;20497;-62
2023/07/29 09:01:12;;;;;;;3.53;1.45;;;19.70;99.90;;;;;;5039928;28;20029;-62
2023/07/29 09:03:38;;;;;;;2.33;1.58;;;19.90;99.90;;;;;;5044295;28;20060;-62
2023/07/29 09:06:05;;;;;;;4.43;2.00;;;20.00;99.90;;;;;;5039905;28;20047;-62
2023/07/29 09:08:31;;;;;;;6.88;1.70;;;20.10;99.90;;;;;;5036190;28;20029;-61
2023/07/29 09:10:57;;;;;;;5.15;1.25;;;20.10;99.90;;;;;;5042673;28;20134;-61
2023/07/29 09:13:23;;;;;;;2.95;1.60;;;20.00;99.90;;;;;;5037954;28;20083;-62
2023/07/29 09:15:48;;;;;;;2.25;1.42;;;20.00;99.90;;;;;;5040283;28;20033;-62
2023/07/29 09:18:19;;;;;;;4.40;1.33;;;20.00;99.90;;;;;;5045056;28;20056;-62
2023/07/29 09:20:50;;;;;;;6.65;1.38;;;19.90;99.90;;;;;;5053124;28;20160;-62
2023/07/29 09:23:15;;;;;;;3.78;1.25;;;19.90;99.90;;;;;;5034858;28;20033;-62
2023/07/29 09:25:41;;;;;;;3.47;1.40;;;19.90;99.90;;;;;;5036094;28;20029;-61
2023/07/29 09:28:09;;;;;;;2.60;1.48;;;19.90;99.90;;;;;;5035133;28;20021;-61
2023/07/29 09:30:35;;;;;;;6.50;1.70;;;19.90;99.90;;;;;;5042383;28;20033;-60
2023/07/29 09:33:01;;;;;;;4.68;1.80;;;20.00;99.90;;;;;;5043871;28;20039;-61
2023/07/29 09:35:30;;;;;;;7.80;1.77;;;20.00;99.90;;;;;;5030426;28;20113;-61
2023/07/29 09:37:55;;;;;;;3.30;1.50;;;19.90;99.90;;;;;;5039381;28;20533;-62
2023/07/29 09:40:21;;;;;;;2.33;1.58;;;19.90;99.90;;;;;;5038286;28;20026;-61
2023/07/29 09:42:54;;;;;;;2.50;1.58;;;19.90;99.90;;;;;;5041321;28;20493;-61
2023/07/29 09:45:27;;;;;;;3.72;1.48;;;19.80;99.90;;;;;;5040860;28;20156;-61
2023/07/29 09:47:53;;;;;;;5.07;2.03;;;20.00;99.90;;;;;;5038954;28;20587;-62
2023/07/29 09:50:23;;;;;;;4.72;1.90;;;20.00;99.90;;;;;;5037851;28;20033;-61
2023/07/29 09:52:50;;;;;;;6.00;1.88;;;20.10;99.90;;;;;;5033563;28;20079;-61
2023/07/29 09:55:26;;;;;;;3.03;1.75;;;20.20;99.90;;;;;;5040256;28;20029;-61
2023/07/29 09:58:03;;;;;;;1.48;1.30;;;20.40;99.90;;;;;;5037492;28;20029;-61
2023/07/29 10:00:30;;;;;;;3.05;1.67;;;20.50;99.90;;;;;;5036250;28;20032;-61
2023/07/29 10:02:57;;;;;;;4.65;2.30;;;20.80;99.90;;;;;;5043418;28;20146;-61
2023/07/29 10:05:27;;;;;;;5.18;1.63;;;20.70;99.90;;;;;;5033294;28;20025;-61
2023/07/29 10:07:54;;;;;;;5.13;1.50;;;20.70;99.90;;;;;;5039719;28;20032;-60
2023/07/29 10:10:20;;;;;;;2.63;1.30;;;20.70;99.90;;;;;;5039768;28;20030;-61
2023/07/29 10:12:46;;;;;;;2.83;1.40;;;20.80;99.90;;;;;;5033869;28;20021;-61
2023/07/29 10:15:12;;;;;;;7.38;1.50;;;20.90;99.90;;;;;;5037485;28;20051;-61
2023/07/29 10:17:39;;;;;;;5.30;1.38;;;20.90;99.90;;;;;;5036290;28;20504;-62
2023/07/29 10:20:06;;;;;;;2.35;1.50;;;20.70;99.90;;;;;;5036190;28;20080;-62
2023/07/29 10:22:43;;;;;;;1.33;1.15;;;20.70;99.90;;;;;;5039070;28;20025;-62
2023/07/29 10:25:21;;;;;;;3.28;1.42;;;20.70;99.90;;;;;;5036965;28;20451;-60
2023/07/29 10:27:57;;;;;;;1.58;1.00;;;20.40;99.90;;;;;;5033437;28;20037;-61
2023/07/29 10:30:24;;;;;;;1.92;1.10;;;20.40;99.90;;;;;;5037020;28;20485;-62
2023/07/29 10:32:52;;;;;;;2.47;1.33;;;20.30;99.90;;;;;;5036593;28;20017;-62
2023/07/29 10:35:18;;;;;;;2.38;1.20;;;20.20;99.90;;;;;;5028483;28;20021;-61
2023/07/29 10:37:45;;;;;;;2.60;1.05;;;20.10;99.90;;;;;;5035412;28;20024;-61
2023/07/29 10:40:11;;;;;;;2.33;1.25;;;20.10;99.90;;;;;;5038777;28;20026;-62
2023/07/29 10:42:38;;;;;;;1.45;1.00;;;20.10;99.90;;;;;;5037809;28;20091;-61
2023/07/29 10:45:24;;;;;;;2.92;1.48;;;20.10;99.90;;;;;;5043672;28;20029;-61
2023/07/29 10:47:50;;;;;;;2.58;1.38;;;19.90;99.90;;;;;;5038925;28;20028;-61
2023/07/29 10:50:20;;;;;;;3.42;1.50;;;19.90;99.90;;;;;;5032254;28;20378;-61
2023/07/29 10:52:52;;;;;;;3.47;1.75;;;19.80;99.90;;;;;;5031797;28;20485;-61
2023/07/29 10:55:32;;;;;;;3.42;1.60;;;19.90;99.90;;;;;;5038174;28;20025;-61
2023/07/29 10:58:07;;;;;;;1.75;1.63;;;19.90;99.90;;;;;;5039406;28;20016;-61
2023/07/29 11:00:33;;;;;;;3.33;1.80;;;20.00;99.90;;;;;;5043251;28;20554;-61
2023/07/29 11:03:02;;;;;;;4.63;2.53;;;20.00;99.90;;;;;;5039793;28;20026;-62
2023/07/29 11:05:46;;;;;;;2.72;1.98;;;20.00;99.90;;;;;;5040879;28;20748;-61
2023/07/29 11:08:20;;;;;;;3.55;2.08;;;20.00;99.90;;;;;;5042506;28;20037;-61
2023/07/29 11:11:05;;;;;;;;;;;20.00;99.90;;;;;;5039072;28;20052;-61
2023/07/29 11:13:33;;;;;;;4.95;2.53;;;19.90;99.90;;;;;;5035899;28;19959;-62
2023/07/29 11:15:59;;;;;;;9.73;3.50;;;19.80;99.90;;;;;;5037891;28;20071;-61
2023/07/29 11:18:36;;;;;;;7.07;3.15;;;19.70;99.90;;;;;;5044692;28;20018;-61
2023/07/29 11:21:03;;;;;;;9.80;3.88;;;19.70;99.90;;;;;;5037558;28;20401;-61
2023/07/29 11:23:36;;;;;;;4.50;2.15;;;19.70;99.90;;;;;;5046257;28;20030;-62
2023/07/29 11:26:02;;;;;;;7.43;2.47;;;19.70;99.90;;;;;;5044140;28;20029;-61
2023/07/29 11:28:28;;;;;;;3.47;2.03;;;19.80;99.90;;;;;;5036869;28;20048;-61
2023/07/29 11:30:58;;;;;;;5.57;2.30;;;20.00;99.90;;;;;;5041366;28;20049;-61
2023/07/29 11:33:25;;;;;;;5.45;2.35;;;20.20;99.90;;;;;;5041998;28;20473;-61
2023/07/29 11:35:52;;;;;;;3.53;1.88;;;20.30;99.90;;;;;;5041851;28;20025;-61
2023/07/29 11:38:19;;;;;;;3.58;1.95;;;20.30;99.90;;;;;;5042973;28;20014;-61
2023/07/29 11:40:54;;;;;;;3.63;1.63;;;20.50;99.90;;;;;;5041957;28;20026;-61
2023/07/29 11:43:20;;;;;;;3.95;1.45;;;20.60;99.90;;;;;;5037233;28;20026;-60
2023/07/29 11:45:45;;;;;;;2.88;1.65;;;20.80;99.90;;;;;;5038234;28;20480;-61
2023/07/29 11:48:11;;;;;;;4.82;1.92;;;21.20;99.90;;;;;;5041589;28;20489;-61
2023/07/29 11:50:37;;;;;;;2.35;1.52;;;21.70;99.90;;;;;;5037594;28;20097;-61
2023/07/29 11:53:02;;;;;;;3.35;1.60;;;21.70;99.90;;;;;;5038449;28;20052;-62
2023/07/29 11:55:28;;;;;;;2.97;1.27;;;22.00;99.90;;;;;;5033937;28;20092;-61
2023/07/29 11:57:54;;;;;;;1.85;1.35;;;22.40;99.90;;;;;;5037076;28;20033;-61
2023/07/29 12:00:21;;;;;;;1.80;1.55;;;22.40;99.90;;;;;;5047149;28;20021;-61
2023/07/29 12:02:50;;;;;;;3.20;1.50;;;22.70;99.90;;;;;;5040038;28;20365;-62
2023/07/29 12:05:16;;;;;;;2.63;1.33;;;22.70;99.90;;;;;;5033048;28;20378;-61
2023/07/29 12:07:44;;;;;;;2.42;1.23;;;22.90;99.90;;;;;;5042723;28;20021;-61
2023/07/29 12:10:10;;;;;;;2.08;1.40;;;23.20;99.90;;;;;;5041353;28;20112;-62
2023/07/29 12:12:56;;;;;;;5.00;1.65;;;23.30;99.90;;;;;;5040844;28;20049;-61
2023/07/29 12:15:26;;;;;;;2.55;1.20;;;22.40;99.90;;;;;;5038416;28;20116;-61
2023/07/29 12:17:56;;;;;;;2.75;1.10;;;22.50;99.90;;;;;;5034301;28;20029;-61
2023/07/29 12:20:22;;;;;;;4.03;1.48;;;22.60;99.90;;;;;;5035711;28;20200;-61
2023/07/29 12:22:55;;;;;;;4.00;1.20;;;23.10;99.90;;;;;;5039225;28;20556;-62
2023/07/29 12:25:21;;;;;;;1.10;1.00;;;23.40;99.90;;;;;;5042279;28;20396;-61
2023/07/29 12:27:47;;;;;;;1.98;1.02;;;23.50;99.90;;;;;;5038409;28;20025;-61
2023/07/29 12:30:13;;;;;;;3.10;1.52;;;24.10;99.90;;;;;;5036157;28;20036;-62
2023/07/29 12:32:45;;;;;;;2.55;1.30;;;24.60;99.90;;;;;;5042982;28;20036;-60
2023/07/29 12:35:11;;;;;;;1.88;1.08;;;24.00;99.90;;;;;;5037100;28;20100;-62
2023/07/29 12:37:38;;;;;;;1.35;1.20;;;24.50;99.90;;;;;;5041327;28;20112;-62
2023/07/29 12:40:04;;;;;;;1.58;1.02;;;24.50;99.90;;;;;;5037899;28;20037;-61
2023/07/29 12:42:30;;;;;;;1.60;1.30;;;24.70;99.90;;;;;;5037439;28;20374;-62
2023/07/29 12:44:55;;;;;;;2.55;1.30;;;24.70;99.90;;;;;;5034612;28;20075;-62